Time;durP1;ratioP1;P1;durP2;ratioP2;P2;SDS_P1;SDS_P2;PMS_P1;PMS_P2;Temp;Humidity;BMP_temperature;BMP_pressure;BME280_temperature;BME280_humidity;BME280_pressure;Samples;Min_cycle;Max_cycle;Signal;HPM_P1;HPM_P2
2023/01/01 00:01:27;;;;;;;65.85;10.90;;;10.60;99.90;;;;;;4961255;28;20475;-68
2023/01/01 00:03:55;;;;;;;53.72;12.63;;;10.60;99.90;;;;;;4961603;28;20086;-68
2023/01/01 00:06:21;;;;;;;75.00;13.18;;;10.60;99.90;;;;;;4958415;28;20035;-68
2023/01/01 00:08:47;;;;;;;55.17;11.60;;;10.60;99.90;;;;;;4958868;28;20480;-68
2023/01/01 00:11:13;;;;;;;69.07;13.15;;;10.60;99.90;;;;;;4956550;28;20031;-68
2023/01/01 00:13:40;;;;;;;64.50;10.52;;;10.70;99.90;;;;;;4958565;28;20506;-68
2023/01/01 00:16:07;;;;;;;67.75;11.52;;;10.60;99.90;;;;;;4956034;28;20019;-68
2023/01/01 00:18:33;;;;;;;53.38;10.30;;;10.60;99.90;;;;;;4962366;28;20035;-69
2023/01/01 00:21:08;;;;;;;65.63;10.68;;;10.60;99.90;;;;;;4956586;28;20049;-68
2023/01/01 00:23:34;;;;;;;59.63;9.98;;;10.60;99.90;;;;;;4958189;28;20042;-68
2023/01/01 00:26:00;;;;;;;73.65;11.77;;;10.60;99.90;;;;;;4956197;28;20038;-68
2023/01/01 00:28:26;;;;;;;80.97;11.90;;;10.70;99.90;;;;;;4957879;28;20023;-68
2023/01/01 00:30:52;;;;;;;65.47;12.40;;;10.70;99.90;;;;;;4955763;28;20034;-68
2023/01/01 00:33:18;;;;;;;55.88;10.00;;;10.80;99.90;;;;;;4957752;28;20144;-68
2023/01/01 00:35:44;;;;;;;52.15;10.85;;;10.80;99.90;;;;;;4957865;28;20501;-68
2023/01/01 00:38:09;;;;;;;71.85;10.65;;;10.80;99.90;;;;;;4957566;28;20039;-68
2023/01/01 00:40:35;;;;;;;58.05;10.07;;;10.90;99.90;;;;;;4971588;28;20125;-68
2023/01/01 00:43:00;;;;;;;61.22;10.48;;;10.80;99.90;;;;;;4959313;28;20547;-68
2023/01/01 00:45:26;;;;;;;71.32;12.68;;;10.70;99.90;;;;;;4975486;28;20521;-68
2023/01/01 00:47:52;;;;;;;67.43;12.73;;;10.70;99.90;;;;;;4966557;28;20027;-68
2023/01/01 00:50:22;;;;;;;54.15;11.02;;;10.60;99.90;;;;;;4975037;28;20046;-68
2023/01/01 00:52:48;;;;;;;59.83;15.25;;;10.60;99.90;;;;;;4970036;28;20043;-68
2023/01/01 00:55:14;;;;;;;72.47;13.15;;;10.60;99.90;;;;;;4971793;28;20049;-68
2023/01/01 00:57:40;;;;;;;46.38;12.25;;;10.60;99.90;;;;;;4973341;28;20027;-68
2023/01/01 01:00:07;;;;;;;53.65;12.48;;;10.60;99.90;;;;;;4974873;28;20073;-67
2023/01/01 01:02:33;;;;;;;62.15;13.13;;;10.60;99.90;;;;;;4968567;28;20062;-68
2023/01/01 01:04:58;;;;;;;56.05;13.93;;;10.60;99.90;;;;;;4972094;28;20034;-68
2023/01/01 01:07:24;;;;;;;55.00;12.85;;;10.50;99.90;;;;;;4974326;28;20042;-68
2023/01/01 01:09:49;;;;;;;64.25;13.57;;;10.50;99.90;;;;;;4974133;28;20037;-68
2023/01/01 01:12:15;;;;;;;74.45;15.23;;;10.50;99.90;;;;;;4974756;28;20038;-68
2023/01/01 01:14:40;;;;;;;60.65;13.27;;;10.50;99.90;;;;;;4974731;28;20026;-68
2023/01/01 01:17:06;;;;;;;47.55;12.15;;;10.60;99.90;;;;;;4974181;28;20019;-68
2023/01/01 01:19:31;;;;;;;57.78;12.98;;;10.70;99.90;;;;;;4972905;28;20041;-68
2023/01/01 01:21:57;;;;;;;71.38;13.60;;;10.70;99.90;;;;;;4972928;28;20022;-68
2023/01/01 01:24:22;;;;;;;70.90;14.60;;;10.80;99.90;;;;;;4974555;28;20454;-68
2023/01/01 01:26:48;;;;;;;52.10;12.55;;;10.90;99.90;;;;;;4974226;28;20026;-68
2023/01/01 01:29:13;;;;;;;60.72;13.10;;;11.10;99.90;;;;;;4968457;28;20077;-68
2023/01/01 01:31:39;;;;;;;52.83;12.27;;;11.30;99.90;;;;;;4973320;28;20091;-68
2023/01/01 01:34:05;;;;;;;66.75;13.75;;;11.30;99.90;;;;;;4972509;28;20027;-68
2023/01/01 01:36:31;;;;;;;59.22;14.30;;;11.30;99.90;;;;;;4973931;28;20042;-68
2023/01/01 01:38:56;;;;;;;47.42;14.95;;;11.40;99.90;;;;;;4973994;28;20031;-68
2023/01/01 01:41:24;;;;;;;56.92;15.35;;;11.50;99.90;;;;;;4973780;28;20034;-68
2023/01/01 01:44:03;;;;;;;64.55;16.70;;;11.50;99.90;;;;;;4973693;28;20469;-68
2023/01/01 01:46:41;;;;;;;64.53;16.33;;;11.50;99.90;;;;;;4973654;28;20169;-67
2023/01/01 01:49:16;;;;;;;61.50;15.63;;;11.50;99.90;;;;;;4972478;28;20033;-67
2023/01/01 01:51:43;;;;;;;72.30;17.02;;;11.60;99.90;;;;;;4973217;28;20038;-67
2023/01/01 01:54:14;;;;;;;60.85;16.88;;;11.60;99.90;;;;;;4973999;28;20602;-68
2023/01/01 01:56:58;;;;;;;49.65;15.10;;;11.60;99.90;;;;;;4974035;28;20520;-68
2023/01/01 01:59:28;;;;;;;47.42;16.38;;;11.80;99.90;;;;;;4962208;28;20035;-68
2023/01/01 02:01:54;;;;;;;45.92;18.10;;;11.90;99.90;;;;;;4973611;28;20031;-68
2023/01/01 02:04:20;;;;;;;54.75;19.33;;;12.00;99.90;;;;;;4974004;28;20031;-68
2023/01/01 02:06:46;;;;;;;59.60;19.60;;;11.90;99.90;;;;;;4974168;28;20042;-67
2023/01/01 02:09:12;;;;;;;60.47;19.67;;;12.00;99.90;;;;;;4973620;28;20026;-68
2023/01/01 02:11:38;;;;;;;59.33;20.10;;;12.00;99.90;;;;;;4973128;28;20045;-67
2023/01/01 02:14:04;;;;;;;57.92;21.02;;;12.00;99.90;;;;;;4973359;28;20082;-67
2023/01/01 02:16:48;;;;;;;67.50;21.63;;;12.00;99.90;;;;;;4974069;28;20367;-67
2023/01/01 02:20:02;;;;;;;63.53;19.17;;;12.00;99.90;;;;;;4965459;28;20111;-68
2023/01/01 02:22:55;;;;;;;64.63;21.60;;;12.00;99.90;;;;;;4963459;28;20035;-68
2023/01/01 02:25:41;;;;;;;76.10;23.00;;;12.00;99.90;;;;;;4961864;28;20031;-68
2023/01/01 02:28:20;;;;;;;62.83;21.52;;;12.00;99.90;;;;;;4973271;28;20030;-67
2023/01/01 02:30:47;;;;;;;52.97;19.00;;;11.90;99.90;;;;;;4973688;28;20026;-67
2023/01/01 02:33:17;;;;;;;64.97;22.90;;;11.90;99.90;;;;;;4973370;28;20122;-68
2023/01/01 02:36:00;;;;;;;71.88;23.48;;;11.70;99.90;;;;;;4973279;28;20062;-68
2023/01/01 02:38:25;;;;;;;61.50;21.52;;;11.60;99.90;;;;;;4973853;28;20023;-67
2023/01/01 02:41:00;;;;;;;55.42;22.73;;;11.40;99.90;;;;;;4973671;28;20030;-68
2023/01/01 02:43:26;;;;;;;78.78;25.38;;;11.50;99.90;;;;;;4973961;28;20023;-67
2023/01/01 02:45:55;;;;;;;60.67;23.30;;;11.40;99.90;;;;;;4972966;28;20106;-67
2023/01/01 02:48:39;;;;;;;71.22;23.63;;;11.40;99.90;;;;;;4970315;28;20090;-68
2023/01/01 02:51:26;;;;;;;81.78;22.90;;;11.30;99.90;;;;;;4973105;28;20031;-68
2023/01/01 02:54:00;;;;;;;61.88;22.75;;;11.30;99.90;;;;;;4968738;28;20061;-68
2023/01/01 02:57:00;;;;;;;68.35;23.65;;;11.30;99.90;;;;;;4972103;28;20027;-67
2023/01/01 03:02:23;;;;;;;83.80;25.02;;;11.00;99.90;;;;;;4975828;28;20034;-67
2023/01/01 03:05:08;;;;;;;75.30;23.40;;;10.90;99.90;;;;;;4975814;28;20086;-68
2023/01/01 03:08:04;;;;;;;82.68;25.02;;;10.80;99.90;;;;;;4966176;28;20105;-67
2023/01/01 03:10:33;;;;;;;76.22;24.25;;;10.80;99.90;;;;;;4976932;28;20042;-67
2023/01/01 03:13:16;;;;;;;87.10;27.63;;;10.70;99.90;;;;;;4976778;28;20039;-67
2023/01/01 03:15:55;;;;;;;72.07;24.63;;;10.80;99.90;;;;;;4976943;28;20027;-67
2023/01/01 03:18:29;;;;;;;74.18;27.55;;;10.80;99.90;;;;;;4976954;28;20066;-67
2023/01/01 03:20:59;;;;;;;76.72;27.70;;;10.80;99.90;;;;;;4975960;28;20149;-67
2023/01/01 03:23:34;;;;;;;84.65;27.92;;;10.80;99.90;;;;;;4976815;28;20039;-67
2023/01/01 03:26:04;;;;;;;78.82;27.58;;;10.70;99.90;;;;;;4976813;28;20592;-67
2023/01/01 03:28:52;;;;;;;79.75;26.35;;;10.70;99.90;;;;;;4974657;28;20058;-68
2023/01/01 03:31:20;;;;;;;92.95;26.65;;;10.70;99.90;;;;;;4963179;28;20105;-67
2023/01/01 03:33:51;;;;;;;79.22;27.95;;;10.70;99.90;;;;;;4976356;28;20093;-67
2023/01/01 03:36:20;;;;;;;74.28;26.35;;;10.70;99.90;;;;;;4975174;28;20031;-67
2023/01/01 03:38:50;;;;;;;78.28;25.58;;;10.80;99.90;;;;;;4975997;28;20081;-68
2023/01/01 03:41:29;;;;;;;71.05;25.88;;;10.80;99.90;;;;;;4976343;28;20027;-67
2023/01/01 03:44:23;;;;;;;88.97;24.80;;;10.70;99.90;;;;;;4976548;28;20038;-67
2023/01/01 03:46:49;;;;;;;76.70;26.92;;;10.70;99.90;;;;;;4976690;28;20085;-67
2023/01/01 03:49:15;;;;;;;80.50;25.98;;;10.70;99.90;;;;;;4976060;28;20035;-67
2023/01/01 03:51:55;;;;;;;79.55;25.40;;;10.60;99.90;;;;;;4975840;28;20027;-68
2023/01/01 03:54:52;;;;;;;64.45;23.38;;;10.60;99.90;;;;;;4976233;28;20027;-68
2023/01/01 03:57:20;;;;;;;71.32;27.27;;;10.50;99.90;;;;;;4976488;28;20019;-67
2023/01/01 04:00:04;;;;;;;85.40;27.38;;;10.50;99.90;;;;;;4974728;28;20041;-67
2023/01/01 04:02:36;;;;;;;81.50;27.00;;;10.40;99.90;;;;;;4971561;28;20367;-68
2023/01/01 04:05:03;;;;;;;87.00;28.30;;;10.40;99.90;;;;;;4975283;28;20030;-68
2023/01/01 04:07:30;;;;;;;94.60;27.25;;;10.40;99.90;;;;;;4974228;28;20026;-68
2023/01/01 04:09:59;;;;;;;92.30;27.15;;;10.40;99.90;;;;;;4974994;28;20042;-67
2023/01/01 04:12:26;;;;;;;81.20;26.92;;;10.30;99.90;;;;;;4975752;28;20086;-67
2023/01/01 04:14:51;;;;;;;75.38;26.83;;;10.30;99.90;;;;;;4973504;28;20030;-68
2023/01/01 04:17:17;;;;;;;103.22;27.38;;;10.30;99.90;;;;;;4964688;28;20422;-67
2023/01/01 04:19:43;;;;;;;88.85;25.85;;;10.30;99.90;;;;;;4970667;28;20023;-68
2023/01/01 04:22:08;;;;;;;89.15;26.08;;;10.30;99.90;;;;;;4972387;28;20491;-67
2023/01/01 04:24:34;;;;;;;94.47;30.00;;;10.30;99.90;;;;;;4974607;28;20106;-67
2023/01/01 04:26:59;;;;;;;82.35;28.38;;;10.30;99.90;;;;;;4972196;28;20062;-67
2023/01/01 04:29:25;;;;;;;111.50;33.42;;;10.20;99.90;;;;;;4975551;28;20023;-67
2023/01/01 04:31:51;;;;;;;96.55;32.25;;;10.20;99.90;;;;;;4974437;28;20038;-67
2023/01/01 04:34:16;;;;;;;118.03;33.78;;;10.20;99.90;;;;;;4975009;28;20037;-67
2023/01/01 04:36:42;;;;;;;114.95;36.45;;;10.10;99.90;;;;;;4975620;28;20019;-67
2023/01/01 04:39:07;;;;;;;106.07;35.72;;;10.10;99.90;;;;;;4972392;28;20395;-67
2023/01/01 04:41:33;;;;;;;80.45;33.33;;;10.10;99.90;;;;;;4975102;28;20035;-67
2023/01/01 04:43:59;;;;;;;89.18;34.67;;;10.20;99.90;;;;;;4975241;28;20038;-67
2023/01/01 04:46:25;;;;;;;103.90;37.17;;;10.20;99.90;;;;;;4975307;28;20446;-67
2023/01/01 04:48:51;;;;;;;116.15;39.33;;;10.10;99.90;;;;;;4975504;28;20027;-67
2023/01/01 04:51:18;;;;;;;119.00;45.08;;;10.10;99.90;;;;;;4975014;28;20035;-67
2023/01/01 04:53:44;;;;;;;128.38;43.28;;;10.20;99.90;;;;;;4974995;28;20026;-68
2023/01/01 04:56:12;;;;;;;107.28;47.72;;;10.10;99.90;;;;;;4974801;28;20054;-67
2023/01/01 04:58:39;;;;;;;129.43;53.08;;;10.10;99.90;;;;;;4974909;28;20147;-67
2023/01/01 05:01:06;;;;;;;124.53;50.95;;;10.10;99.90;;;;;;4974846;28;20031;-67
2023/01/01 05:03:32;;;;;;;123.82;54.83;;;10.10;99.90;;;;;;4972421;28;20360;-68
2023/01/01 05:06:09;;;;;;;139.45;57.45;;;10.10;99.90;;;;;;4974802;28;20033;-68
2023/01/01 05:08:38;;;;;;;131.05;55.65;;;10.10;99.90;;;;;;4974947;28;20113;-67
2023/01/01 05:11:09;;;;;;;116.13;54.83;;;10.20;99.90;;;;;;4968637;28;20027;-68
2023/01/01 05:13:37;;;;;;;127.45;56.45;;;10.20;99.90;;;;;;4974712;28;20019;-68
2023/01/01 05:16:08;;;;;;;116.53;54.80;;;10.30;99.90;;;;;;4974701;28;20030;-68
2023/01/01 05:18:35;;;;;;;117.55;54.45;;;10.20;99.90;;;;;;4965702;28;20092;-67
2023/01/01 05:21:02;;;;;;;108.10;49.47;;;10.30;99.90;;;;;;4973078;28;20027;-68
2023/01/01 05:23:28;;;;;;;109.97;51.10;;;10.30;99.90;;;;;;4972300;28;20033;-67
2023/01/01 05:25:54;;;;;;;88.47;44.97;;;10.40;99.90;;;;;;4974655;28;20076;-67
2023/01/01 05:28:19;;;;;;;95.40;42.30;;;10.30;99.90;;;;;;4974029;28;20038;-67
2023/01/01 05:30:45;;;;;;;110.65;43.05;;;10.40;99.90;;;;;;4974363;28;20023;-67
2023/01/01 05:33:11;;;;;;;100.38;45.90;;;10.30;99.90;;;;;;4974300;28;20050;-67
2023/01/01 05:35:37;;;;;;;104.28;43.55;;;10.30;99.90;;;;;;4974420;28;20038;-68
2023/01/01 05:38:03;;;;;;;118.00;45.33;;;10.40;99.90;;;;;;4974299;28;20019;-67
2023/01/01 05:40:29;;;;;;;110.03;42.58;;;10.40;99.90;;;;;;4974146;28;20041;-67
2023/01/01 05:42:55;;;;;;;93.95;41.92;;;10.30;99.90;;;;;;4974288;28;20034;-67
2023/01/01 05:45:20;;;;;;;114.38;46.33;;;10.30;99.90;;;;;;4974125;28;20458;-67
2023/01/01 05:47:46;;;;;;;95.28;43.67;;;10.20;99.90;;;;;;4973373;28;20045;-68
2023/01/01 05:50:11;;;;;;;102.50;45.58;;;10.30;99.90;;;;;;4972857;28;20478;-67
2023/01/01 05:52:37;;;;;;;109.35;47.22;;;10.30;99.90;;;;;;4974328;28;20038;-67
2023/01/01 05:55:03;;;;;;;104.78;48.45;;;10.40;99.90;;;;;;4974136;28;20101;-67
2023/01/01 05:57:28;;;;;;;111.90;47.13;;;10.40;99.90;;;;;;4974452;28;20027;-67
2023/01/01 05:59:54;;;;;;;118.93;49.97;;;10.40;99.90;;;;;;4973982;28;20112;-68
2023/01/01 06:02:19;;;;;;;114.95;51.03;;;10.50;99.90;;;;;;4974589;28;20110;-68
2023/01/01 06:04:45;;;;;;;100.00;49.35;;;10.50;99.90;;;;;;4968656;28;20503;-68
2023/01/01 06:07:11;;;;;;;102.00;46.90;;;10.50;99.90;;;;;;4973878;28;20038;-67
2023/01/01 06:09:36;;;;;;;84.25;44.08;;;10.60;99.90;;;;;;4973130;28;20390;-67
2023/01/01 06:12:02;;;;;;;85.47;44.13;;;10.50;99.90;;;;;;4971297;28;20482;-68
2023/01/01 06:14:28;;;;;;;98.65;43.00;;;10.50;99.90;;;;;;4972667;28;20039;-67
2023/01/01 06:16:53;;;;;;;96.85;43.72;;;10.50;99.90;;;;;;4964008;28;20031;-67
2023/01/01 06:19:19;;;;;;;86.40;39.08;;;10.50;99.90;;;;;;4968194;28;20499;-68
2023/01/01 06:21:44;;;;;;;76.82;37.65;;;10.60;99.90;;;;;;4974212;28;20042;-68
2023/01/01 06:24:10;;;;;;;82.90;35.60;;;10.60;99.90;;;;;;4974088;28;20422;-68
2023/01/01 06:26:35;;;;;;;72.88;34.72;;;10.60;99.90;;;;;;4973743;28;20137;-68
2023/01/01 06:29:01;;;;;;;69.25;33.63;;;10.60;99.90;;;;;;4973749;28;20029;-67
2023/01/01 06:31:28;;;;;;;78.88;30.77;;;10.60;99.90;;;;;;4973894;28;20093;-68
2023/01/01 06:33:54;;;;;;;65.45;29.42;;;10.60;99.90;;;;;;4957970;28;20488;-68
2023/01/01 06:36:22;;;;;;;74.22;32.15;;;10.60;99.90;;;;;;4974479;28;20031;-68
2023/01/01 06:38:50;;;;;;;81.25;32.13;;;10.60;99.90;;;;;;4977816;28;20411;-67
2023/01/01 06:41:21;;;;;;;75.47;30.58;;;10.70;99.90;;;;;;4976091;28;20113;-67
2023/01/01 06:43:47;;;;;;;68.93;30.20;;;10.60;99.90;;;;;;4977499;28;20096;-67
2023/01/01 06:46:24;;;;;;;64.43;28.38;;;10.60;99.90;;;;;;4973018;28;20502;-67
2023/01/01 06:48:57;;;;;;;84.72;29.73;;;10.60;99.90;;;;;;4977551;28;20433;-67
2023/01/01 06:51:28;;;;;;;73.28;27.02;;;10.60;99.90;;;;;;4976613;28;20037;-67
2023/01/01 06:53:53;;;;;;;76.95;26.15;;;10.60;99.90;;;;;;4977110;28;20073;-68
2023/01/01 06:56:20;;;;;;;71.72;26.00;;;10.60;99.90;;;;;;4975521;28;20110;-67
2023/01/01 06:58:46;;;;;;;70.72;24.05;;;10.50;99.90;;;;;;4977180;28;20031;-67
2023/01/01 07:01:14;;;;;;;71.80;24.45;;;10.50;99.90;;;;;;4969613;28;20037;-68
2023/01/01 07:03:41;;;;;;;65.75;23.38;;;10.40;99.90;;;;;;4974754;28;20031;-67
2023/01/01 07:06:07;;;;;;;51.63;20.77;;;10.40;99.90;;;;;;4970411;28;20039;-67
2023/01/01 07:08:34;;;;;;;57.00;21.33;;;10.40;99.90;;;;;;4971167;28;20035;-68
2023/01/01 07:10:59;;;;;;;66.68;20.20;;;10.30;99.90;;;;;;4975499;28;20034;-67
2023/01/01 07:13:26;;;;;;;59.50;18.08;;;10.20;99.90;;;;;;4968701;28;20020;-68
2023/01/01 07:15:52;;;;;;;62.42;18.20;;;10.10;99.90;;;;;;4976512;28;20041;-68
2023/01/01 07:18:19;;;;;;;65.70;19.02;;;10.10;99.90;;;;;;4975090;28;20034;-68
2023/01/01 07:20:52;;;;;;;53.38;15.98;;;10.10;99.90;;;;;;4967725;28;20098;-68
2023/01/01 07:23:17;;;;;;;51.85;15.48;;;10.00;99.90;;;;;;4965299;28;20031;-68
2023/01/01 07:25:43;;;;;;;57.42;16.10;;;9.90;99.90;;;;;;4974991;28;20037;-68
2023/01/01 07:28:09;;;;;;;54.60;13.25;;;9.90;99.90;;;;;;4966284;28;20023;-67
2023/01/01 07:30:34;;;;;;;45.35;11.45;;;9.90;99.90;;;;;;4976036;28;20482;-67
2023/01/01 07:33:00;;;;;;;60.25;10.27;;;9.80;99.90;;;;;;4976114;28;20031;-68
2023/01/01 07:35:25;;;;;;;50.25;12.68;;;9.80;99.90;;;;;;4975986;28;20031;-68
2023/01/01 07:37:51;;;;;;;56.45;11.88;;;9.80;99.90;;;;;;4976198;28;20390;-68
2023/01/01 07:40:16;;;;;;;45.28;11.25;;;9.80;99.90;;;;;;4976099;28;20027;-68
2023/01/01 07:42:42;;;;;;;46.97;10.25;;;9.80;99.90;;;;;;4974737;28;20099;-68
2023/01/01 07:45:10;;;;;;;50.33;10.80;;;9.70;99.90;;;;;;4975165;28;20054;-67
2023/01/01 07:47:36;;;;;;;51.08;10.02;;;9.70;99.90;;;;;;4976770;28;20041;-68
2023/01/01 07:50:01;;;;;;;58.33;9.75;;;9.70;99.90;;;;;;4975986;28;20483;-67
2023/01/01 07:52:27;;;;;;;45.97;9.18;;;9.70;99.90;;;;;;4976124;28;20126;-67
2023/01/01 07:54:53;;;;;;;36.28;7.95;;;9.70;99.90;;;;;;4975640;28;20035;-67
2023/01/01 07:57:18;;;;;;;63.20;9.70;;;9.70;99.90;;;;;;4975852;28;20027;-67
2023/01/01 07:59:44;;;;;;;51.63;10.30;;;9.80;99.90;;;;;;4971382;28;20062;-67
2023/01/01 08:02:12;;;;;;;40.33;8.07;;;9.80;99.90;;;;;;4976139;28;20117;-67
2023/01/01 08:04:38;;;;;;;39.22;8.20;;;9.80;99.90;;;;;;4989182;23;20043;-71
2023/01/01 08:07:04;;;;;;;52.40;8.23;;;9.80;99.90;;;;;;4976199;28;20106;-70
2023/01/01 08:09:29;;;;;;;50.92;8.50;;;9.90;99.90;;;;;;4976282;28;20041;-70
2023/01/01 08:11:57;;;;;;;46.95;8.93;;;9.90;99.90;;;;;;4975844;28;20101;-70
2023/01/01 08:14:24;;;;;;;55.60;8.70;;;9.90;99.90;;;;;;4975417;28;20051;-70
2023/01/01 08:16:50;;;;;;;52.15;7.85;;;9.80;99.90;;;;;;4972991;28;20030;-70
2023/01/01 08:19:16;;;;;;;39.08;8.25;;;9.80;99.90;;;;;;4974234;28;20038;-70
2023/01/01 08:21:41;;;;;;;49.83;9.02;;;9.70;99.90;;;;;;4975541;28;20479;-70
2023/01/01 08:24:07;;;;;;;55.30;9.38;;;9.70;99.90;;;;;;4971412;28;20115;-70
2023/01/01 08:26:34;;;;;;;50.95;9.23;;;9.70;99.90;;;;;;4970296;28;20035;-70
2023/01/01 08:29:05;;;;;;;64.60;10.95;;;9.70;99.90;;;;;;4975134;28;20027;-69
2023/01/01 08:31:30;;;;;;;67.90;9.80;;;9.70;99.90;;;;;;4965515;28;20035;-70
2023/01/01 08:33:56;;;;;;;51.70;8.35;;;9.70;99.90;;;;;;4967135;28;20054;-70
2023/01/01 08:36:21;;;;;;;55.90;8.10;;;9.80;99.90;;;;;;4975313;28;20134;-69
2023/01/01 08:38:47;;;;;;;59.88;9.77;;;9.80;99.90;;;;;;4975118;28;20105;-69
2023/01/01 08:41:12;;;;;;;56.47;8.98;;;9.90;99.90;;;;;;4974746;28;20026;-69
2023/01/01 08:43:38;;;;;;;78.43;10.52;;;9.80;99.90;;;;;;4975389;28;20030;-69
2023/01/01 08:46:04;;;;;;;68.07;11.63;;;9.80;99.90;;;;;;4975195;28;20034;-69
2023/01/01 08:48:29;;;;;;;65.32;9.90;;;9.80;99.90;;;;;;4975558;28;20037;-70
2023/01/01 08:50:59;;;;;;;58.25;9.48;;;9.80;99.90;;;;;;4975050;28;20051;-70
2023/01/01 08:53:24;;;;;;;76.82;9.20;;;9.70;99.90;;;;;;4975004;28;20023;-70
2023/01/01 08:55:57;;;;;;;77.20;11.48;;;9.60;99.90;;;;;;4974535;28;20390;-69
2023/01/01 08:58:23;;;;;;;67.87;9.77;;;9.60;99.90;;;;;;4975716;28;20546;-70
2023/01/01 09:00:48;;;;;;;74.15;10.50;;;9.50;99.90;;;;;;4975155;28;20038;-70
2023/01/01 09:03:14;;;;;;;71.78;10.52;;;9.40;99.90;;;;;;4974658;28;20030;-70
2023/01/01 09:05:44;;;;;;;70.05;10.18;;;9.40;99.90;;;;;;4974336;28;20085;-69
2023/01/01 09:08:10;;;;;;;87.78;11.40;;;9.50;99.90;;;;;;4973178;28;20117;-69
2023/01/01 09:10:36;;;;;;;77.72;11.43;;;9.50;99.90;;;;;;4973713;28;20030;-70
2023/01/01 09:13:01;;;;;;;81.03;13.30;;;9.50;99.90;;;;;;4974557;28;20038;-69
2023/01/01 09:15:27;;;;;;;79.88;11.70;;;9.50;99.90;;;;;;4974930;28;20558;-69
2023/01/01 09:17:52;;;;;;;70.57;10.27;;;9.50;99.90;;;;;;4974699;28;20042;-68
2023/01/01 09:20:18;;;;;;;78.75;12.23;;;9.40;99.90;;;;;;4974528;28;20064;-70
2023/01/01 09:22:43;;;;;;;54.83;9.95;;;9.40;99.90;;;;;;4971283;28;20093;-70
2023/01/01 09:25:09;;;;;;;72.35;11.00;;;9.40;99.90;;;;;;4969632;28;20035;-70
2023/01/01 09:27:34;;;;;;;80.38;11.57;;;9.30;99.90;;;;;;4974956;28;20034;-69
2023/01/01 09:30:00;;;;;;;98.22;12.23;;;9.30;99.90;;;;;;4973204;28;20505;-69
2023/01/01 09:32:25;;;;;;;78.88;10.32;;;9.20;99.90;;;;;;4974425;28;20454;-70
2023/01/01 09:34:51;;;;;;;71.55;8.85;;;9.20;99.90;;;;;;4974516;28;20098;-69
2023/01/01 09:37:16;;;;;;;107.43;12.13;;;9.20;99.90;;;;;;4974331;28;20478;-69
2023/01/01 09:39:42;;;;;;;94.85;10.77;;;9.20;99.90;;;;;;4968713;28;20031;-69
2023/01/01 09:42:23;;;;;;;99.65;13.02;;;9.20;99.90;;;;;;4963503;28;20050;-69
2023/01/01 09:44:57;;;;;;;74.28;11.07;;;9.20;99.90;;;;;;4965357;28;20510;-69
2023/01/01 09:47:29;;;;;;;78.38;10.27;;;9.20;99.90;;;;;;4965813;28;20114;-69
2023/01/01 09:50:05;;;;;;;75.32;10.32;;;9.20;99.90;;;;;;4970219;28;20035;-70
2023/01/01 09:53:03;;;;;;;82.53;11.32;;;9.20;99.90;;;;;;4969051;28;20027;-69
2023/01/01 09:55:51;;;;;;;88.82;12.13;;;9.10;99.90;;;;;;4963551;28;20038;-70
2023/01/01 09:58:21;;;;;;;89.57;12.35;;;9.10;99.90;;;;;;4961681;28;20027;-71
2023/01/01 10:00:53;;;;;;;76.53;10.10;;;9.00;99.90;;;;;;4966289;28;20761;-71
2023/01/01 10:03:46;;;;;;;92.13;11.85;;;9.00;99.90;;;;;;4966079;28;20498;-71
2023/01/01 10:06:24;;;;;;;80.10;9.90;;;9.00;99.90;;;;;;4969037;28;20088;-71
2023/01/01 10:09:16;;;;;;;67.85;10.27;;;9.00;99.90;;;;;;4961310;28;20376;-71
2023/01/01 10:12:14;;;;;;;71.32;9.82;;;9.10;99.90;;;;;;4969465;28;20479;-71
2023/01/01 10:14:46;;;;;;;83.20;11.48;;;9.20;99.90;;;;;;4967329;28;20027;-72
2023/01/01 10:17:19;;;;;;;92.40;13.15;;;9.20;99.90;;;;;;4964685;28;20494;-71
2023/01/01 10:19:55;;;;;;;69.72;8.05;;;9.20;99.90;;;;;;4965831;28;20035;-71
2023/01/01 10:22:34;;;;;;;68.53;10.50;;;9.20;99.90;;;;;;4971141;28;20035;-71
2023/01/01 10:25:13;;;;;;;80.78;11.45;;;9.20;99.90;;;;;;4963069;28;20034;-70
2023/01/01 10:27:50;;;;;;;90.85;10.23;;;9.20;99.90;;;;;;4966413;28;20030;-72
2023/01/01 10:30:19;;;;;;;95.97;10.95;;;9.20;99.90;;;;;;4964540;28;20024;-72
2023/01/01 10:32:50;;;;;;;66.28;10.73;;;9.20;99.90;;;;;;4967681;28;20034;-71
2023/01/01 10:35:29;;;;;;;99.72;11.93;;;9.20;99.90;;;;;;4960942;28;20026;-71
2023/01/01 10:37:57;;;;;;;93.38;11.18;;;9.20;99.90;;;;;;4964856;28;20011;-71
2023/01/01 10:40:25;;;;;;;78.57;9.98;;;9.20;99.90;;;;;;4968020;28;20066;-71
2023/01/01 10:42:53;;;;;;;86.75;10.90;;;9.20;99.90;;;;;;4966734;28;20137;-71
2023/01/01 10:45:33;;;;;;;85.18;11.48;;;9.20;99.90;;;;;;4964707;28;20039;-71
2023/01/01 10:48:17;;;;;;;81.63;11.27;;;9.20;99.90;;;;;;4965438;28;20026;-71
2023/01/01 10:50:47;;;;;;;85.28;11.80;;;9.20;99.90;;;;;;4961716;28;20486;-71
2023/01/01 10:53:37;;;;;;;77.35;11.77;;;9.20;99.90;;;;;;4965765;28;20053;-71
2023/01/01 10:56:04;;;;;;;104.03;11.88;;;9.20;99.90;;;;;;4962016;28;20082;-71
2023/01/01 10:58:35;;;;;;;87.00;12.07;;;9.20;99.90;;;;;;4960737;28;20054;-71
2023/01/01 11:01:02;;;;;;;81.18;11.02;;;9.20;99.90;;;;;;4965773;28;20023;-71
2023/01/01 11:03:28;;;;;;;90.60;10.90;;;9.20;99.90;;;;;;4966535;28;20042;-71
2023/01/01 11:06:18;;;;;;;88.18;10.60;;;9.20;99.90;;;;;;4961921;28;20031;-71
2023/01/01 11:08:52;;;;;;;82.57;14.13;;;9.20;99.90;;;;;;4964347;28;20022;-71
2023/01/01 11:11:30;;;;;;;89.13;12.50;;;9.20;99.90;;;;;;4967897;28;20533;-71
2023/01/01 11:13:58;;;;;;;91.75;11.68;;;9.20;99.90;;;;;;4964961;28;20030;-71
2023/01/01 11:16:26;;;;;;;82.18;10.63;;;9.20;99.90;;;;;;4964337;28;20388;-71
2023/01/01 11:18:59;;;;;;;71.40;11.45;;;9.30;99.90;;;;;;4969534;28;20042;-71
2023/01/01 11:21:24;;;;;;;79.50;10.27;;;9.30;99.90;;;;;;4967394;28;20106;-71
2023/01/01 11:24:07;;;;;;;62.80;10.30;;;9.30;99.90;;;;;;4971373;28;20121;-70
2023/01/01 11:26:33;;;;;;;94.23;10.50;;;9.30;99.90;;;;;;4967444;28;20051;-68
2023/01/01 11:29:21;;;;;;;72.93;12.73;;;9.40;99.90;;;;;;4969265;28;20070;-69
2023/01/01 11:31:47;;;;;;;70.82;11.05;;;9.40;99.90;;;;;;4971637;28;20038;-69
2023/01/01 11:34:35;;;;;;;88.15;12.45;;;9.40;99.90;;;;;;4968129;28;20061;-69
2023/01/01 11:37:27;;;;;;;75.85;8.95;;;9.40;99.90;;;;;;4972680;28;20023;-69
2023/01/01 11:39:55;;;;;;;79.60;11.75;;;9.50;99.90;;;;;;4967730;28;20033;-69
2023/01/01 11:42:26;;;;;;;76.00;11.05;;;9.50;99.90;;;;;;4963863;28;20031;-70
2023/01/01 11:44:57;;;;;;;86.68;12.52;;;9.60;99.90;;;;;;4972334;28;20035;-69
2023/01/01 11:47:31;;;;;;;76.03;11.02;;;9.60;99.90;;;;;;4966956;28;20038;-69
2023/01/01 11:50:17;;;;;;;81.07;11.63;;;9.70;99.90;;;;;;4964318;28;20026;-69
2023/01/01 11:52:45;;;;;;;77.75;12.13;;;9.70;99.90;;;;;;4969735;28;20078;-72
2023/01/01 11:55:16;;;;;;;95.97;10.63;;;9.70;99.90;;;;;;4969469;28;20494;-70
2023/01/01 11:57:52;;;;;;;104.47;12.98;;;9.80;99.90;;;;;;4965395;28;20034;-70
2023/01/01 12:00:18;;;;;;;94.28;12.20;;;9.80;99.90;;;;;;4962304;28;20275;-71
2023/01/01 12:02:57;;;;;;;94.32;11.30;;;9.70;99.90;;;;;;4947667;28;21635;-71
2023/01/01 12:05:28;;;;;;;90.50;11.85;;;9.70;99.90;;;;;;4967961;28;20089;-70
2023/01/01 12:07:59;;;;;;;77.63;10.13;;;9.70;99.90;;;;;;4964383;28;20019;-71
2023/01/01 12:10:32;;;;;;;81.93;11.15;;;9.80;99.90;;;;;;4963600;28;20034;-71
2023/01/01 12:13:05;;;;;;;93.88;12.00;;;9.80;99.90;;;;;;4969370;28;20031;-72
2023/01/01 12:15:38;;;;;;;86.70;11.10;;;9.80;99.90;;;;;;4967156;28;20027;-72
2023/01/01 12:18:17;;;;;;;91.47;13.45;;;9.70;99.90;;;;;;4969733;28;20054;-71
2023/01/01 12:20:58;;;;;;;88.25;11.98;;;9.60;99.90;;;;;;4973596;28;20035;-72
2023/01/01 12:23:23;;;;;;;99.80;12.52;;;9.60;99.90;;;;;;4971827;28;20039;-71
2023/01/01 12:26:03;;;;;;;76.15;11.38;;;9.50;99.90;;;;;;4972726;28;20545;-72
2023/01/01 12:29:13;;;;;;;90.28;11.35;;;9.40;99.90;;;;;;4958263;28;20042;-72
2023/01/01 12:32:02;;;;;;;78.45;10.52;;;9.40;99.90;;;;;;4957738;28;20443;-71
2023/01/01 12:34:40;;;;;;;73.50;11.05;;;9.30;99.90;;;;;;4959123;28;20039;-72
2023/01/01 12:37:33;;;;;;;83.68;11.35;;;9.20;99.90;;;;;;4956900;28;20043;-71
2023/01/01 12:40:19;;;;;;;98.28;12.82;;;9.10;99.90;;;;;;4959700;28;20023;-71
2023/01/01 12:43:01;;;;;;;70.90;8.85;;;9.10;99.90;;;;;;4957711;28;20050;-71
2023/01/01 12:45:43;;;;;;;71.93;9.27;;;9.10;99.90;;;;;;4956183;28;20027;-72
2023/01/01 12:48:38;;;;;;;64.80;10.02;;;9.10;99.90;;;;;;4956836;28;20045;-70
2023/01/01 12:51:11;;;;;;;96.13;11.02;;;9.10;99.90;;;;;;4957229;28;20066;-71